createdAt,value
2018-09-25T00:01:27.227Z,101033.13
2018-09-25T00:04:01.049Z,101028.31
2018-09-25T00:06:35.774Z,101023.51
2018-09-25T00:09:11.062Z,101027.89
2018-09-25T00:11:44.619Z,101032.71
2018-09-25T00:14:18.317Z,101034.86
2018-09-25T00:16:52.177Z,101040.14
2018-09-25T00:19:26.493Z,101043.16
2018-09-25T00:22:00.560Z,101043.19
2018-09-25T00:24:34.559Z,101041.01
2018-09-25T00:27:09.228Z,101038.83
2018-09-25T00:29:43.374Z,101041.02
2018-09-25T00:32:17.072Z,101051.96
2018-09-25T00:34:50.880Z,101056.33
2018-09-25T00:37:24.837Z,101047.16
2018-09-25T00:39:58.798Z,101058.53
2018-09-25T00:42:34.668Z,101056.78
2018-09-25T00:45:08.860Z,101056.77
2018-09-25T00:47:42.584Z,101056.34
2018-09-25T00:50:18.425Z,101052.34
2018-09-25T00:52:52.234Z,101058.91
2018-09-25T00:55:25.982Z,101061.54
2018-09-25T00:57:59.950Z,101069.84
2018-09-25T01:00:33.978Z,101077.28
2018-09-25T01:03:07.658Z,101075.07
2018-09-25T01:05:41.676Z,101066.33
2018-09-25T01:08:15.628Z,101079.91
2018-09-25T01:10:49.533Z,101090.84
2018-09-25T01:13:23.474Z,101086.45
2018-09-25T01:15:57.429Z,101093.02
2018-09-25T01:18:31.133Z,101095.64
2018-09-25T01:21:05.035Z,101095.19
2018-09-25T01:23:39.711Z,101107.00
2018-09-25T01:26:13.754Z,101103.48
2018-09-25T01:28:47.552Z,101106.03
2018-09-25T01:31:21.524Z,101113.88
2018-09-25T01:33:55.467Z,101120.80
2018-09-25T01:36:29.548Z,101118.59
2018-09-25T01:39:03.236Z,101112.44
2018-09-25T01:41:37.239Z,101118.13
2018-09-25T01:44:11.079Z,101119.88
2018-09-25T01:46:45.069Z,101124.30
2018-09-25T01:49:18.944Z,101123.91
2018-09-25T01:51:52.867Z,101133.56
2018-09-25T01:54:26.669Z,101131.41
2018-09-25T01:57:03.558Z,101132.33
2018-09-25T01:59:38.228Z,101132.34
2018-09-25T02:02:12.776Z,101145.02
2018-09-25T02:04:46.609Z,101141.08
2018-09-25T02:07:20.567Z,101150.28
2018-09-25T02:09:54.480Z,101149.84
2018-09-25T02:12:28.298Z,101148.09
2018-09-25T02:15:02.296Z,101160.34
2018-09-25T02:17:37.092Z,101169.55
2018-09-25T02:20:10.937Z,101170.88
2018-09-25T02:22:44.824Z,101170.45
2018-09-25T02:25:18.878Z,101171.33
2018-09-25T02:27:52.783Z,101179.23
2018-09-25T02:30:26.493Z,101183.19
2018-09-25T02:33:00.290Z,101183.17
2018-09-25T02:35:34.207Z,101177.94
2018-09-25T02:38:08.186Z,101183.62
2018-09-25T02:40:42.197Z,101191.91
2018-09-25T02:43:16.198Z,101191.91
2018-09-25T02:45:49.780Z,101193.22
2018-09-25T02:48:23.720Z,101182.73
2018-09-25T02:50:57.640Z,101195.84
2018-09-25T02:53:31.731Z,101199.78
2018-09-25T02:56:05.640Z,101185.36
2018-09-25T02:58:40.125Z,101200.66
2018-09-25T03:01:14.070Z,101204.59
2018-09-25T03:03:47.950Z,101214.20
2018-09-25T03:06:21.811Z,101208.52
2018-09-25T03:08:55.693Z,101217.70
2018-09-25T03:11:29.319Z,101210.70
2018-09-25T03:14:03.255Z,101201.09
2018-09-25T03:16:37.228Z,101209.41
2018-09-25T03:19:11.300Z,101208.12
2018-09-25T03:21:45.465Z,101207.70
2018-09-25T03:24:19.253Z,101214.25
2018-09-25T03:26:52.860Z,101208.13
2018-09-25T03:29:26.547Z,101213.84
2018-09-25T03:32:00.315Z,101212.97
2018-09-25T03:34:34.112Z,101222.58
2018-09-25T03:37:07.997Z,101222.58
2018-09-25T03:39:41.904Z,101223.87
2018-09-25T03:42:15.736Z,101233.95
2018-09-25T03:44:49.708Z,101239.19
2018-09-25T03:47:23.757Z,101233.95
2018-09-25T03:49:57.584Z,101244.86
2018-09-25T03:52:31.508Z,101233.94
2018-09-25T03:55:05.407Z,101237.87
2018-09-25T03:57:39.186Z,101247.47
2018-09-25T04:00:13.253Z,101245.31
2018-09-25T04:02:47.102Z,101244.86
2018-09-25T04:05:22.023Z,101249.66
2018-09-25T04:07:57.188Z,101241.80
2018-09-25T04:10:31.247Z,101246.59
2018-09-25T04:13:05.076Z,101253.59
2018-09-25T04:15:39.007Z,101247.03
2018-09-25T04:18:12.996Z,101246.58
2018-09-25T04:20:47.242Z,101251.38
2018-09-25T04:23:21.389Z,101263.59
2018-09-25T04:25:55.418Z,101271.89
2018-09-25T04:28:29.179Z,101271.41
2018-09-25T04:31:03.240Z,101278.34
2018-09-25T04:33:37.101Z,101278.77
2018-09-25T04:36:11.002Z,101287.02
2018-09-25T04:38:45.052Z,101290.06
2018-09-25T04:41:18.983Z,101293.55
2018-09-25T04:43:52.703Z,101293.55
2018-09-25T04:46:26.900Z,101302.73
2018-09-25T04:49:00.608Z,101296.20
2018-09-25T04:51:34.621Z,101304.09
2018-09-25T04:54:08.210Z,101303.20
2018-09-25T04:56:42.236Z,101310.17
2018-09-25T04:59:16.075Z,101317.16
2018-09-25T05:01:50.052Z,101314.98
2018-09-25T05:04:23.800Z,101318.06
2018-09-25T05:06:57.803Z,101321.98
2018-09-25T05:09:32.157Z,101323.73
2018-09-25T05:12:06.153Z,101325.93
2018-09-25T05:14:40.008Z,101329.86
2018-09-25T05:17:14.036Z,101328.14
2018-09-25T05:19:47.921Z,101334.27
2018-09-25T05:22:21.936Z,101341.72
2018-09-25T05:24:55.600Z,101340.41
2018-09-25T05:27:29.450Z,101350.03
2018-09-25T05:30:03.288Z,101349.59
2018-09-25T05:32:38.292Z,101357.02
2018-09-25T05:35:12.069Z,101358.33
2018-09-25T05:37:46.008Z,101364.47
2018-09-25T05:40:20.026Z,101384.98
2018-09-25T05:42:53.921Z,101378.91
2018-09-25T05:45:27.960Z,101392.03
2018-09-25T05:48:03.230Z,101399.45
2018-09-25T05:50:37.107Z,101394.67
2018-09-25T05:53:11.097Z,101395.10
2018-09-25T05:55:45.261Z,101397.30
2018-09-25T05:58:20.012Z,101407.80
2018-09-25T06:00:53.933Z,101413.93
2018-09-25T06:03:27.859Z,101418.28
2018-09-25T06:06:01.673Z,101416.12
2018-09-25T06:08:35.455Z,101419.61
2018-09-25T06:11:09.123Z,101425.28
2018-09-25T06:13:43.230Z,101443.22
2018-09-25T06:16:16.970Z,101440.17
2018-09-25T06:18:52.927Z,101438.40
2018-09-25T06:21:26.905Z,101441.50
2018-09-25T06:24:00.993Z,101433.20
2018-09-25T06:26:34.913Z,101451.14
2018-09-25T06:29:09.035Z,101446.32
2018-09-25T06:31:42.833Z,101453.76
2018-09-25T06:34:16.585Z,101453.73
2018-09-25T06:36:50.430Z,101461.18
2018-09-25T06:39:24.364Z,101458.97
2018-09-25T06:41:58.152Z,101474.72
2018-09-25T06:44:32.197Z,101474.28
2018-09-25T06:47:05.957Z,101481.25
2018-09-25T06:49:40.080Z,101480.38
2018-09-25T06:52:13.869Z,101481.25
2018-09-25T06:54:47.812Z,101495.27
2018-09-25T06:57:21.773Z,101482.13
2018-09-25T06:59:56.945Z,101484.72
2018-09-25T07:02:31.828Z,101483.84
2018-09-25T07:05:05.811Z,101489.09
2018-09-25T07:07:39.855Z,101495.23
2018-09-25T07:10:13.933Z,101501.32
2018-09-25T07:12:47.704Z,101507.45
2018-09-25T07:15:22.688Z,101511.78
2018-09-25T07:17:56.451Z,101521.41
2018-09-25T07:20:30.264Z,101519.22
2018-09-25T07:23:04.327Z,101511.33
2018-09-25T07:25:38.408Z,101520.47
2018-09-25T07:28:12.425Z,101520.92
2018-09-25T07:30:47.353Z,101518.28
2018-09-25T07:33:21.257Z,101530.97
2018-09-25T07:35:56.290Z,101530.53
2018-09-25T07:38:30.080Z,101543.19
2018-09-25T07:41:03.994Z,101559.83
2018-09-25T07:43:40.003Z,101550.63
2018-09-25T07:46:13.855Z,101554.05
2018-09-25T07:48:47.487Z,101549.95
2018-09-25T07:51:21.507Z,101561.77
2018-09-25T07:53:55.388Z,101576.27
2018-09-25T07:56:29.318Z,101570.56
2018-09-25T07:59:03.304Z,101575.29
2018-09-25T08:01:37.232Z,101567.25
2018-09-25T08:04:11.344Z,101579.53
2018-09-25T08:06:45.353Z,101576.40
2018-09-25T08:09:19.129Z,101577.77
2018-09-25T08:11:53.169Z,101586.45
2018-09-25T08:14:26.872Z,101596.42
2018-09-25T08:17:00.798Z,101584.47
2018-09-25T08:19:34.859Z,101601.60
2018-09-25T08:22:09.732Z,101593.72
2018-09-25T08:24:43.593Z,101602.42
2018-09-25T08:27:17.535Z,101595.56
2018-09-25T08:29:51.546Z,101596.46
2018-09-25T08:32:25.477Z,101604.48
2018-09-25T08:34:59.474Z,101602.28
2018-09-25T08:37:33.253Z,101607.75
2018-09-25T08:40:07.120Z,101625.12
2018-09-25T08:42:41.044Z,101609.39
2018-09-25T08:45:14.888Z,101616.92
2018-09-25T08:47:48.993Z,101623.39
2018-09-25T08:50:22.869Z,101625.48
2018-09-25T08:52:56.666Z,101613.20
2018-09-25T08:55:30.570Z,101620.97
2018-09-25T08:58:04.428Z,101622.06
2018-09-25T09:00:38.329Z,101617.47
2018-09-25T09:03:12.389Z,101642.20
2018-09-25T09:05:46.160Z,101626.62
2018-09-25T09:08:20.061Z,101627.81
2018-09-25T09:10:53.885Z,101633.33
2018-09-25T09:13:27.823Z,101648.95
2018-09-25T09:16:01.590Z,101637.40
2018-09-25T09:18:36.512Z,101649.07
2018-09-25T09:21:10.498Z,101643.83
2018-09-25T09:23:44.445Z,101646.83
2018-09-25T09:26:18.338Z,101643.13
2018-09-25T09:28:52.215Z,101648.49
2018-09-25T09:31:26.042Z,101654.16
2018-09-25T09:34:00.107Z,101661.86
2018-09-25T09:36:33.966Z,101664.08
2018-09-25T09:39:07.941Z,101649.16
2018-09-25T09:41:42.007Z,101651.20
2018-09-25T09:44:15.790Z,101656.84
2018-09-25T09:46:49.670Z,101646.20
2018-09-25T09:49:23.816Z,101642.42
2018-09-25T09:51:57.708Z,101639.16
2018-09-25T09:54:31.494Z,101663.75
2018-09-25T09:57:05.510Z,101668.59
2018-09-25T09:59:39.504Z,101655.81
2018-09-25T10:02:13.266Z,101654.41
2018-09-25T10:04:47.192Z,101651.28
2018-09-25T10:07:21.090Z,101651.17
2018-09-25T10:09:55.911Z,101665.36
2018-09-25T10:12:29.697Z,101656.50
2018-09-25T10:15:04.673Z,101646.58
2018-09-25T10:17:38.428Z,101650.08
2018-09-25T10:20:12.967Z,101641.52
2018-09-25T10:22:46.754Z,101640.31
2018-09-25T10:25:20.670Z,101645.44
2018-09-25T10:27:54.437Z,101635.77
2018-09-25T10:30:28.365Z,101649.01
2018-09-25T10:33:02.071Z,101648.53
2018-09-25T10:35:36.055Z,101661.86
2018-09-25T10:38:10.039Z,101657.44
2018-09-25T10:40:44.242Z,101662.36
2018-09-25T10:43:18.149Z,101665.92
2018-09-25T10:45:51.945Z,101658.73
2018-09-25T10:48:25.815Z,101660.22
2018-09-25T10:50:59.789Z,101674.11
2018-09-25T10:53:33.937Z,101671.32
2018-09-25T10:56:08.313Z,101657.72
2018-09-25T10:58:42.013Z,101659.31
2018-09-25T11:01:16.072Z,101668.28
2018-09-25T11:03:49.989Z,101675.62
2018-09-25T11:06:24.004Z,101663.06
2018-09-25T11:08:57.749Z,101683.34
2018-09-25T11:11:31.820Z,101656.13
2018-09-25T11:14:05.485Z,101664.03
2018-09-25T11:16:39.485Z,101657.42
2018-09-25T11:19:21.113Z,101661.77
2018-09-25T11:21:54.892Z,101669.39
2018-09-25T11:24:29.783Z,101669.17
2018-09-25T11:27:03.648Z,101668.99
2018-09-25T11:29:37.360Z,101657.50
2018-09-25T11:32:11.729Z,101674.52
2018-09-25T11:34:45.925Z,101655.70
2018-09-25T11:37:19.763Z,101657.34
2018-09-25T11:39:53.550Z,101655.05
2018-09-25T11:42:27.437Z,101653.90
2018-09-25T11:45:02.591Z,101662.15
2018-09-25T11:47:37.020Z,101659.53
2018-09-25T11:50:10.979Z,101669.98
2018-09-25T11:52:44.794Z,101660.47
2018-09-25T11:55:18.606Z,101659.91
2018-09-25T11:57:52.353Z,101662.09
2018-09-25T12:00:26.133Z,101676.51
2018-09-25T12:03:00.097Z,101657.44
2018-09-25T12:05:34.073Z,101658.58
2018-09-25T12:08:08.024Z,101666.08
2018-09-25T12:10:43.052Z,101656.59
2018-09-25T12:13:16.981Z,101676.09
2018-09-25T12:15:50.716Z,101652.84
2018-09-25T12:18:24.798Z,101647.81
2018-09-25T12:20:58.789Z,101656.20
2018-09-25T12:23:33.558Z,101651.68
2018-09-25T12:26:08.473Z,101652.03
2018-09-25T12:28:42.423Z,101666.39
2018-09-25T12:31:16.368Z,101667.34
2018-09-25T12:33:50.249Z,101664.86
2018-09-25T12:36:25.357Z,101654.66
2018-09-25T12:38:59.479Z,101654.84
2018-09-25T12:41:33.327Z,101673.27
2018-09-25T12:44:07.333Z,101676.66
2018-09-25T12:46:41.331Z,101672.91
2018-09-25T12:49:15.238Z,101680.63
2018-09-25T12:51:49.028Z,101679.45
2018-09-25T12:54:22.656Z,101679.62
2018-09-25T12:56:56.660Z,101683.63
2018-09-25T12:59:30.632Z,101685.29
2018-09-25T13:02:04.405Z,101682.63
2018-09-25T13:04:38.191Z,101678.80
2018-09-25T13:07:12.116Z,101677.31
2018-09-25T13:09:46.180Z,101672.22
2018-09-25T13:12:19.969Z,101681.13
2018-09-25T13:14:53.689Z,101695.05
2018-09-25T13:17:27.515Z,101678.21
2018-09-25T13:20:01.478Z,101682.97
2018-09-25T13:22:35.888Z,101686.09
2018-09-25T13:25:09.752Z,101683.54
2018-09-25T13:27:43.714Z,101710.17
2018-09-25T13:30:17.525Z,101697.87
2018-09-25T13:32:51.571Z,101702.65
2018-09-25T13:35:25.393Z,101713.45
2018-09-25T13:37:59.306Z,101704.37
2018-09-25T13:40:33.268Z,101701.91
2018-09-25T13:43:07.175Z,101712.80
2018-09-25T13:45:41.140Z,101697.14
2018-09-25T13:48:15.114Z,101709.08
2018-09-25T13:50:48.800Z,101690.13
2018-09-25T13:53:22.521Z,101694.39
2018-09-25T13:55:56.353Z,101695.64
2018-09-25T13:58:30.258Z,101692.65
2018-09-25T14:01:04.090Z,101692.34
2018-09-25T14:03:37.914Z,101686.39
2018-09-25T14:06:11.881Z,101701.57
2018-09-25T14:08:45.717Z,101696.70
2018-09-25T14:11:19.669Z,101693.89
2018-09-25T14:13:53.725Z,101694.52
2018-09-25T14:16:28.698Z,101690.70
2018-09-25T14:19:02.450Z,101685.92
2018-09-25T14:21:36.432Z,101691.47
2018-09-25T14:24:10.308Z,101691.98
2018-09-25T14:26:44.139Z,101698.09
2018-09-25T14:29:18.125Z,101707.11
2018-09-25T14:31:52.033Z,101704.69
2018-09-25T14:34:26.030Z,101715.17
2018-09-25T14:37:00.131Z,101703.47
2018-09-25T14:39:34.990Z,101701.71
2018-09-25T14:42:09.791Z,101703.88
2018-09-25T14:44:43.758Z,101714.58
2018-09-25T14:47:17.788Z,101708.17
2018-09-25T14:49:52.629Z,101708.19
2018-09-25T14:52:26.663Z,101701.52
2018-09-25T14:55:00.776Z,101712.06
2018-09-25T14:57:34.855Z,101704.38
2018-09-25T15:00:08.864Z,101705.72
2018-09-25T15:02:42.954Z,101703.67
2018-09-25T15:05:16.767Z,101696.95
2018-09-25T15:07:51.639Z,101712.33
2018-09-25T15:10:26.245Z,101716.04
2018-09-25T15:13:00.320Z,101728.86
2018-09-25T15:15:34.442Z,101716.03
2018-09-25T15:18:08.537Z,101725.96
2018-09-25T15:20:42.376Z,101716.36
2018-09-25T15:23:16.203Z,101725.41
2018-09-25T15:25:50.036Z,101717.40
2018-09-25T15:28:24.071Z,101736.67
2018-09-25T15:30:58.004Z,101729.34
2018-09-25T15:33:31.942Z,101720.62
2018-09-25T15:36:05.929Z,101728.69
2018-09-25T15:38:39.890Z,101742.19
2018-09-25T15:41:13.710Z,101746.95
2018-09-25T15:43:47.844Z,101748.34
2018-09-25T15:46:21.796Z,101752.81
2018-09-25T15:48:57.598Z,101753.43
2018-09-25T15:51:31.477Z,101755.05
2018-09-25T15:54:05.492Z,101763.84
2018-09-25T15:56:39.424Z,101756.41
2018-09-25T15:59:13.230Z,101765.00
2018-09-25T16:01:47.178Z,101762.08
2018-09-25T16:04:20.994Z,101764.48
2018-09-25T16:06:54.852Z,101765.25
2018-09-25T16:09:28.597Z,101764.16
2018-09-25T16:12:02.591Z,101766.16
2018-09-25T16:14:36.430Z,101772.11
2018-09-25T16:17:10.274Z,101775.05
2018-09-25T16:19:44.146Z,101774.89
2018-09-25T16:22:18.953Z,101776.03
2018-09-25T16:24:52.860Z,101778.06
2018-09-25T16:27:26.620Z,101773.02
2018-09-25T16:30:00.423Z,101780.29
2018-09-25T16:32:34.341Z,101783.59
2018-09-25T16:35:08.197Z,101788.64
2018-09-25T16:37:42.077Z,101787.46
2018-09-25T16:40:16.024Z,101795.57
2018-09-25T16:42:50.007Z,101801.44
2018-09-25T16:45:24.120Z,101802.87
2018-09-25T16:47:59.148Z,101803.86
2018-09-25T16:50:33.164Z,101813.19
2018-09-25T16:53:07.041Z,101823.80
2018-09-25T16:55:41.108Z,101815.94
2018-09-25T16:58:15.025Z,101821.74
2018-09-25T17:00:49.039Z,101827.95
2018-09-25T17:03:23.030Z,101835.02
2018-09-25T17:05:56.995Z,101832.81
2018-09-25T17:08:31.211Z,101833.71
2018-09-25T17:11:05.032Z,101841.23
2018-09-25T17:13:38.772Z,101836.79
2018-09-25T17:16:12.893Z,101837.67
2018-09-25T17:18:47.002Z,101842.55
2018-09-25T17:21:21.000Z,101842.56
2018-09-25T17:23:54.978Z,101845.70
2018-09-25T17:26:29.009Z,101848.88
2018-09-25T17:29:02.967Z,101853.84
2018-09-25T17:31:36.759Z,101857.91
2018-09-25T17:34:11.912Z,101860.63
2018-09-25T17:36:45.857Z,101861.10
2018-09-25T17:39:19.590Z,101863.36
2018-09-25T17:41:53.465Z,101863.85
2018-09-25T17:44:27.122Z,101873.97
2018-09-25T17:47:01.153Z,101873.53
2018-09-25T17:49:35.298Z,101869.62
2018-09-25T17:52:09.188Z,101870.51
2018-09-25T17:54:43.342Z,101868.72
2018-09-25T17:57:17.214Z,101882.33
2018-09-25T17:59:51.683Z,101882.77
2018-09-25T18:02:25.452Z,101887.64
2018-09-25T18:04:59.534Z,101888.95
2018-09-25T18:07:33.819Z,101882.81
2018-09-25T18:10:07.819Z,101886.32
2018-09-25T18:12:41.703Z,101897.33
2018-09-25T18:15:16.581Z,101900.39
2018-09-25T18:17:50.536Z,101903.46
2018-09-25T18:20:24.690Z,101910.05
2018-09-25T18:22:59.922Z,101913.55
2018-09-25T18:28:25.756Z,101926.28
2018-09-25T18:30:59.789Z,101915.28
2018-09-25T18:33:34.913Z,101927.14
2018-09-25T18:36:09.873Z,101923.62
2018-09-25T18:38:44.678Z,101922.75
2018-09-25T18:41:18.774Z,101924.91
2018-09-25T18:43:53.749Z,101923.59
2018-09-25T18:46:27.638Z,101928.90
2018-09-25T18:49:01.597Z,101931.97
2018-09-25T18:51:35.940Z,101939.44
2018-09-25T18:54:10.174Z,101935.92
2018-09-25T18:56:44.182Z,101941.59
2018-09-25T18:59:18.310Z,101942.91
2018-09-25T19:01:52.344Z,101944.27
2018-09-25T19:04:27.587Z,101949.09
2018-09-25T19:07:01.405Z,101954.36
2018-09-25T19:09:35.479Z,101952.61
2018-09-25T19:12:09.992Z,101953.48
2018-09-25T19:14:44.482Z,101954.36
2018-09-25T19:17:26.020Z,101961.35
2018-09-25T19:20:01.156Z,101970.56
2018-09-25T19:22:35.040Z,101961.78
2018-09-25T19:25:09.179Z,101971.03
2018-09-25T19:27:43.247Z,101969.27
2018-09-25T19:30:17.108Z,101971.02
2018-09-25T19:32:50.814Z,101981.11
2018-09-25T19:35:25.124Z,101979.38
2018-09-25T19:37:59.177Z,101984.64
2018-09-25T19:40:33.234Z,101976.30
2018-09-25T19:43:07.267Z,101977.17
2018-09-25T19:45:41.074Z,101985.07
2018-09-25T19:48:15.348Z,101982.87
2018-09-25T19:50:49.337Z,101980.27
2018-09-25T19:53:23.156Z,101985.95
2018-09-25T19:55:57.164Z,101989.02
2018-09-25T19:58:30.853Z,101986.84
2018-09-25T20:01:04.639Z,101980.27
2018-09-25T20:03:38.735Z,101981.58
2018-09-25T20:06:12.888Z,101978.03
2018-09-25T20:08:46.889Z,101976.31
2018-09-25T20:11:20.804Z,101976.75
2018-09-25T20:13:54.489Z,101980.25
2018-09-25T20:16:28.475Z,101985.08
2018-09-25T20:19:04.704Z,101981.55
2018-09-25T20:21:39.474Z,101980.23
2018-09-25T20:24:14.179Z,101985.92
2018-09-25T20:26:49.013Z,101984.19
2018-09-25T20:29:22.792Z,101987.25
2018-09-25T20:31:56.682Z,101985.03
2018-09-25T20:34:30.720Z,101983.27
2018-09-25T20:37:04.727Z,101982.40
2018-09-25T20:39:38.500Z,101987.17
2018-09-25T20:42:13.045Z,101992.79
2018-09-25T20:44:47.024Z,101991.39
2018-09-25T20:47:21.164Z,101993.45
2018-09-25T20:49:54.990Z,101996.42
2018-09-25T20:52:28.853Z,102004.65
2018-09-25T20:55:02.836Z,102007.64
2018-09-25T20:57:36.797Z,102003.23
2018-09-25T21:00:10.733Z,102006.25
2018-09-25T21:02:44.618Z,102005.81
2018-09-25T21:05:18.543Z,102009.31
2018-09-25T21:07:52.359Z,102011.50
2018-09-25T21:10:26.418Z,102007.52
2018-09-25T21:13:00.375Z,102010.56
2018-09-25T21:15:34.242Z,102012.30
2018-09-25T21:18:08.030Z,102011.81
2018-09-25T21:20:41.818Z,102013.99
2018-09-25T21:23:15.758Z,102016.14
2018-09-25T21:25:50.629Z,102024.44
2018-09-25T21:28:25.577Z,102022.66
2018-09-25T21:30:59.400Z,102022.25
2018-09-25T21:33:33.273Z,102018.21
2018-09-25T21:36:07.186Z,102022.51
2018-09-25T21:38:41.113Z,102027.28
2018-09-25T21:41:14.933Z,102029.93
2018-09-25T21:43:48.788Z,102033.84
2018-09-25T21:46:22.696Z,102031.17
2018-09-25T21:48:57.548Z,102023.23
2018-09-25T21:51:31.559Z,102021.80
2018-09-25T21:54:05.502Z,102037.50
2018-09-25T21:56:39.428Z,102025.58
2018-09-25T21:59:14.309Z,102018.09
2018-09-25T22:01:48.257Z,102021.52
2018-09-25T22:04:22.099Z,102020.58
2018-09-25T22:06:56.064Z,102020.97
2018-09-25T22:09:29.939Z,102031.77
2018-09-25T22:12:03.868Z,102029.91
2018-09-25T22:14:37.879Z,102037.17
2018-09-25T22:17:11.848Z,102037.55
2018-09-25T22:19:45.849Z,102041.45
2018-09-25T22:22:20.885Z,102039.23
2018-09-25T22:24:54.827Z,102029.16
2018-09-25T22:27:28.652Z,102029.16
2018-09-25T22:30:05.713Z,102025.23
2018-09-25T22:32:40.528Z,102025.64
2018-09-25T22:35:14.456Z,102019.49
2018-09-25T22:37:48.436Z,102025.57
2018-09-25T22:40:24.443Z,102033.35
2018-09-25T22:42:58.391Z,102031.06
2018-09-25T22:45:32.305Z,102027.06
2018-09-25T22:48:06.269Z,102028.27
2018-09-25T22:50:41.238Z,102035.53
2018-09-25T22:53:15.280Z,102032.92
2018-09-25T22:55:49.136Z,102037.22
2018-09-25T22:58:23.008Z,102037.54
2018-09-25T23:00:56.892Z,102041.41
2018-09-25T23:03:30.815Z,102039.20
2018-09-25T23:06:11.429Z,102042.61
2018-09-25T23:08:45.295Z,102044.72
2018-09-25T23:11:19.388Z,102038.91
2018-09-25T23:13:53.204Z,102042.84
2018-09-25T23:16:27.117Z,102033.14
2018-09-25T23:19:00.923Z,102040.50
2018-09-25T23:21:35.060Z,102042.60
2018-09-25T23:24:08.844Z,102036.88
2018-09-25T23:26:42.638Z,102032.45
2018-09-25T23:29:16.442Z,102033.30
2018-09-25T23:31:51.318Z,102044.16
2018-09-25T23:34:27.376Z,102033.63
2018-09-25T23:37:01.314Z,102042.27
2018-09-25T23:39:35.160Z,102039.56
2018-09-25T23:42:08.683Z,102036.09
2018-09-25T23:44:43.368Z,102040.87
2018-09-25T23:47:17.458Z,102047.89
2018-09-25T23:49:51.422Z,102045.34
2018-09-25T23:52:31.780Z,102038.86
2018-09-25T23:55:08.349Z,102038.86
2018-09-25T23:57:42.453Z,102044.58
